createdAt,value
2018-02-19T04:32:34.851Z,14.32
2018-02-19T04:35:08.552Z,14.23
2018-02-19T04:37:42.942Z,15.63
2018-02-19T04:40:17.471Z,16.48
2018-02-19T04:42:54.668Z,14.70
2018-02-19T04:45:29.091Z,14.55
2018-02-19T04:48:02.900Z,14.20
2018-02-19T04:50:37.388Z,14.73
2018-02-19T04:53:11.276Z,13.70
2018-02-19T04:55:45.104Z,14.80
2018-02-19T04:58:34.832Z,14.48
2018-02-19T05:01:08.604Z,13.13
2018-02-19T05:03:43.544Z,15.85
2018-02-19T05:06:18.064Z,15.13
2018-02-19T05:08:51.804Z,13.75
2018-02-19T05:11:25.808Z,14.45
2018-02-19T05:13:59.736Z,15.82
2018-02-19T05:16:34.208Z,14.02
2018-02-19T05:19:08.047Z,14.35
2018-02-19T05:21:41.928Z,15.95
2018-02-19T05:24:15.642Z,13.93
2018-02-19T05:26:49.430Z,14.27
2018-02-19T05:29:23.263Z,13.48
2018-02-19T05:31:57.044Z,13.82
2018-02-19T05:34:30.810Z,13.73
2018-02-19T05:37:05.164Z,12.95
2018-02-19T05:39:39.146Z,12.65
2018-02-19T05:42:12.813Z,12.95
2018-02-19T05:44:46.588Z,13.30
2018-02-19T05:47:21.112Z,13.13
2018-02-19T05:49:54.840Z,14.57
2018-02-19T05:52:30.476Z,14.82
2018-02-19T05:55:05.109Z,13.23
2018-02-19T05:57:39.126Z,15.65
2018-02-19T06:00:14.933Z,15.45
2018-02-19T06:02:49.661Z,15.10
2018-02-19T06:05:24.520Z,14.07
2018-02-19T06:07:59.052Z,14.68
2018-02-19T06:10:34.003Z,13.38
2018-02-19T06:13:08.092Z,13.93
2018-02-19T06:15:42.358Z,14.00
2018-02-19T06:18:16.472Z,14.07
2018-02-19T06:20:51.374Z,14.65
2018-02-19T06:23:25.131Z,16.25
2018-02-19T06:26:00.980Z,14.90
2018-02-19T06:28:37.225Z,14.82
2018-02-19T06:31:11.000Z,15.65
2018-02-19T06:33:44.859Z,14.13
2018-02-19T06:36:19.084Z,16.10
2018-02-19T06:38:53.703Z,15.25
2018-02-19T06:41:27.375Z,15.63
2018-02-19T06:44:01.248Z,15.57
2018-02-19T06:46:35.233Z,15.80
2018-02-19T06:49:08.968Z,13.95
2018-02-19T06:51:42.656Z,16.00
2018-02-19T06:54:16.350Z,16.00
2018-02-19T06:56:50.090Z,15.18
2018-02-19T06:59:23.771Z,14.63
2018-02-19T07:01:57.528Z,16.40
2018-02-19T07:04:31.267Z,14.55
2018-02-19T07:07:05.072Z,15.10
2018-02-19T07:09:39.102Z,16.92
2018-02-19T07:12:13.004Z,14.05
2018-02-19T07:14:46.753Z,16.55
2018-02-19T07:17:20.574Z,15.77
2018-02-19T07:19:54.445Z,13.90
2018-02-19T07:22:28.173Z,17.52
2018-02-19T07:25:02.034Z,14.07
2018-02-19T07:27:36.819Z,16.67
2018-02-19T07:30:10.630Z,17.08
2018-02-19T07:32:44.373Z,15.38
2018-02-19T07:35:18.189Z,14.87
2018-02-19T07:37:52.007Z,12.95
2018-02-19T07:40:25.750Z,14.82
2018-02-19T07:43:00.319Z,18.45
2018-02-19T07:45:34.090Z,15.15
2018-02-19T07:48:07.875Z,17.55
2018-02-19T07:50:42.050Z,16.12
2018-02-19T07:53:15.928Z,16.23
2018-02-19T07:55:49.620Z,15.82
2018-02-19T07:58:24.499Z,14.73
2018-02-19T08:00:58.831Z,14.60
2018-02-19T08:03:32.555Z,14.18
2018-02-19T08:06:07.136Z,15.57
2018-02-19T08:08:41.028Z,15.45
2018-02-19T08:11:14.934Z,16.05
2018-02-19T08:13:48.829Z,16.60
2018-02-19T08:16:22.499Z,15.23
2018-02-19T08:18:56.347Z,16.30
2018-02-19T08:21:30.082Z,16.50
2018-02-19T08:24:03.928Z,17.02
2018-02-19T08:26:38.511Z,16.27
2018-02-19T08:29:12.274Z,18.23
2018-02-19T08:31:46.156Z,17.20
2018-02-19T08:34:19.846Z,16.35
2018-02-19T08:36:54.319Z,18.87
2018-02-19T08:39:28.868Z,16.15
2018-02-19T08:42:02.759Z,18.23
2018-02-19T08:44:36.427Z,15.45
2018-02-19T08:47:10.260Z,17.25
2018-02-19T08:49:45.684Z,17.02
2018-02-19T08:52:19.348Z,19.98
2018-02-19T08:54:53.556Z,18.20
2018-02-19T08:57:27.281Z,17.60
2018-02-19T09:00:01.085Z,18.62
2018-02-19T09:02:35.690Z,17.25
2018-02-19T09:05:09.512Z,17.33
2018-02-19T09:07:43.305Z,18.85
2018-02-19T09:10:17.149Z,19.25
2018-02-19T09:12:50.936Z,18.02
2018-02-19T09:15:25.540Z,18.30
2018-02-19T09:17:59.219Z,18.17
2018-02-19T09:20:32.932Z,18.65
2018-02-19T09:23:06.822Z,17.80
2018-02-19T09:25:40.813Z,18.00
2018-02-19T09:28:14.667Z,18.73
2018-02-19T09:30:48.388Z,19.20
2018-02-19T09:33:23.081Z,17.75
2018-02-19T09:35:56.916Z,16.02
2018-02-19T09:38:30.975Z,17.35
2018-02-19T09:41:04.755Z,19.62
2018-02-19T09:43:39.905Z,17.30
2018-02-19T09:46:13.669Z,16.40
2018-02-19T09:48:47.483Z,18.20
2018-02-19T09:51:22.074Z,17.58
2018-02-19T09:53:55.871Z,19.45
2018-02-19T09:56:32.139Z,17.00
2018-02-19T09:59:05.952Z,18.30
2018-02-19T10:01:39.664Z,16.85
2018-02-19T10:04:13.464Z,18.00
2018-02-19T10:06:47.227Z,17.52
2018-02-19T10:09:21.760Z,16.23
2018-02-19T10:11:55.579Z,15.95
2018-02-19T10:14:29.294Z,18.55
2018-02-19T10:17:03.413Z,16.20
2018-02-19T10:19:37.237Z,14.85
2018-02-19T10:22:11.276Z,16.42
2018-02-19T10:24:45.227Z,15.45
2018-02-19T10:27:18.873Z,16.35
2018-02-19T10:29:52.917Z,18.00
2018-02-19T10:32:26.550Z,18.45
2018-02-19T10:35:00.592Z,18.42
2018-02-19T10:37:35.216Z,17.70
2018-02-19T10:40:09.829Z,16.27
2018-02-19T10:42:44.478Z,17.30
2018-02-19T10:45:18.374Z,17.35
2018-02-19T10:47:52.037Z,17.00
2018-02-19T10:50:25.801Z,15.38
2018-02-19T10:52:59.640Z,15.77
2018-02-19T10:55:33.557Z,20.88
2018-02-19T10:58:09.113Z,14.90
2018-02-19T11:00:45.893Z,17.25
2018-02-19T11:03:19.637Z,14.90
2018-02-19T11:05:54.433Z,15.50
2018-02-19T11:08:28.208Z,17.42
2018-02-19T11:11:02.026Z,15.30
2018-02-19T11:13:38.337Z,16.20
2018-02-19T11:16:12.028Z,16.45
2018-02-19T11:18:45.836Z,16.27
2018-02-19T11:21:19.680Z,16.05
2018-02-19T11:23:54.783Z,18.35
2018-02-19T11:26:30.324Z,15.80
2018-02-19T11:29:06.420Z,15.13
2018-02-19T11:31:41.677Z,15.68
2018-02-19T11:34:15.741Z,13.85
2018-02-19T11:36:49.680Z,16.48
2018-02-19T11:39:23.980Z,15.93
2018-02-19T11:41:58.691Z,16.35
2018-02-19T11:44:32.549Z,16.75
2018-02-19T11:47:06.314Z,16.35
2018-02-19T11:49:40.062Z,16.62
2018-02-19T11:52:14.596Z,15.90
2018-02-19T11:54:48.370Z,16.12
2018-02-19T11:57:22.216Z,17.73
2018-02-19T11:59:55.949Z,17.80
2018-02-19T12:02:29.684Z,16.60
2018-02-19T12:05:03.524Z,16.37
2018-02-19T12:07:37.449Z,17.25
2018-02-19T12:10:13.345Z,18.35
2018-02-19T12:12:47.054Z,16.55
2018-02-19T12:15:21.644Z,17.85
2018-02-19T12:17:56.578Z,16.60
2018-02-19T12:20:32.238Z,17.73
2018-02-19T12:23:06.102Z,17.73
2018-02-19T12:25:39.896Z,19.10
2018-02-19T12:28:13.704Z,18.95
2018-02-19T12:30:48.192Z,17.62
2018-02-19T12:33:21.789Z,16.70
2018-02-19T12:35:55.505Z,18.45
2018-02-19T12:38:29.350Z,18.98
2018-02-19T12:41:03.138Z,17.98
2018-02-19T12:43:37.881Z,18.05
2018-02-19T12:46:11.712Z,19.40
2018-02-19T12:48:46.230Z,17.05
2018-02-19T12:51:19.984Z,19.52
2018-02-19T12:53:53.800Z,18.05
2018-02-19T12:56:27.657Z,17.75
2018-02-19T12:59:01.424Z,16.42
2018-02-19T13:01:37.200Z,18.40
2018-02-19T13:04:11.080Z,17.30
2018-02-19T13:06:44.911Z,18.58
2018-02-19T13:09:18.978Z,19.25
2018-02-19T13:11:53.273Z,17.85
2018-02-19T13:14:27.106Z,16.70
2018-02-19T13:17:01.250Z,20.10
2018-02-19T13:19:35.196Z,17.58
2018-02-19T13:22:08.944Z,17.42
2018-02-19T13:24:42.638Z,17.17
2018-02-19T13:27:16.474Z,18.90
2018-02-19T13:29:51.055Z,20.60
2018-02-19T13:32:24.956Z,18.45
2018-02-19T13:34:58.723Z,18.25
2018-02-19T13:37:32.464Z,17.83
2018-02-19T13:40:06.236Z,18.75
2018-02-19T13:42:39.888Z,17.92
2018-02-19T13:45:16.761Z,17.90
2018-02-19T13:47:50.412Z,18.33
2018-02-19T13:50:24.180Z,17.37
2018-02-19T13:52:58.105Z,19.30
2018-02-19T13:55:31.885Z,17.95
2018-02-19T13:58:06.395Z,17.92
2018-02-19T14:00:40.637Z,19.30
2018-02-19T14:03:14.423Z,18.33
2018-02-19T14:05:48.222Z,18.52
2018-02-19T14:08:21.842Z,21.30
2018-02-19T14:10:57.570Z,18.77
2018-02-19T14:13:31.495Z,19.80
2018-02-19T14:16:05.248Z,17.67
2018-02-19T14:18:39.309Z,15.98
2018-02-19T14:21:13.076Z,19.80
2018-02-19T14:23:46.974Z,18.30
2018-02-19T14:26:21.641Z,18.50
2018-02-19T14:28:55.456Z,20.23
2018-02-19T14:31:30.076Z,20.48
2018-02-19T14:34:03.937Z,19.70
2018-02-19T14:36:38.700Z,20.30
2018-02-19T14:39:12.444Z,20.88
2018-02-19T14:41:46.220Z,19.77
2018-02-19T14:44:19.998Z,20.33
2018-02-19T14:46:53.814Z,20.83
2018-02-19T14:49:28.209Z,18.45
2018-02-19T14:52:02.973Z,19.10
2018-02-19T14:54:36.861Z,21.70
2018-02-19T14:57:11.400Z,23.00
2018-02-19T14:59:45.168Z,21.95
2018-02-19T15:02:18.899Z,21.30
2018-02-19T15:04:52.737Z,20.35
2018-02-19T15:07:26.835Z,21.23
2018-02-19T15:10:00.553Z,19.35
2018-02-19T15:12:35.691Z,20.27
2018-02-19T15:15:09.508Z,20.95
2018-02-19T15:17:43.344Z,20.45
2018-02-19T15:20:17.130Z,18.83
2018-02-19T15:22:50.928Z,21.20
2018-02-19T15:25:25.339Z,20.15
2018-02-19T15:27:59.147Z,19.73
2018-02-19T15:30:32.877Z,20.25
2018-02-19T15:33:06.663Z,21.35
2018-02-19T15:35:41.162Z,19.90
2018-02-19T15:38:14.882Z,19.75
2018-02-19T15:40:48.688Z,19.55
2018-02-19T15:43:23.204Z,20.65
2018-02-19T15:45:56.837Z,20.33
2018-02-19T15:48:30.915Z,20.20
2018-02-19T15:51:04.683Z,20.70
2018-02-19T15:53:39.217Z,19.90
2018-02-19T15:56:13.070Z,20.95
2018-02-19T15:58:46.845Z,19.42
2018-02-19T16:01:21.386Z,22.40
2018-02-19T16:03:56.284Z,23.38
2018-02-19T16:06:31.102Z,18.98
2018-02-19T16:09:04.850Z,21.75
2018-02-19T16:11:38.706Z,22.52
2018-02-19T16:14:12.467Z,20.45
2018-02-19T16:16:46.267Z,21.15
2018-02-19T16:19:20.127Z,22.83
2018-02-19T16:21:55.391Z,21.52
2018-02-19T16:24:30.061Z,19.33
2018-02-19T16:27:03.762Z,20.88
2018-02-19T16:29:38.343Z,20.20
2018-02-19T16:32:12.157Z,21.40
2018-02-19T16:34:45.848Z,21.35
2018-02-19T16:37:20.708Z,21.05
2018-02-19T16:39:54.544Z,19.58
2018-02-19T16:42:28.410Z,22.33
2018-02-19T16:45:02.825Z,21.33
2018-02-19T16:47:36.684Z,19.60
2018-02-19T16:50:10.896Z,19.60
2018-02-19T16:52:45.512Z,20.80
2018-02-19T16:55:19.307Z,21.48
2018-02-19T16:57:53.096Z,25.42
2018-02-19T17:00:26.792Z,23.02
2018-02-19T17:03:00.632Z,22.08
2018-02-19T17:05:34.389Z,20.70
2018-02-19T17:08:08.190Z,21.83
2018-02-19T17:10:42.028Z,20.23
2018-02-19T17:13:16.552Z,21.60
2018-02-19T17:15:50.348Z,20.37
2018-02-19T17:18:24.239Z,22.90
2018-02-19T17:20:58.808Z,20.98
2018-02-19T17:23:32.569Z,19.10
2018-02-19T17:26:06.376Z,21.35
2018-02-19T17:28:40.988Z,21.23
2018-02-19T17:31:14.860Z,20.75
2018-02-19T17:33:48.513Z,19.83
2018-02-19T17:36:22.315Z,21.92
2018-02-19T17:38:56.707Z,22.33
2018-02-19T17:41:30.357Z,21.58
2018-02-19T17:44:04.172Z,22.92
2018-02-19T17:46:37.805Z,21.62
2018-02-19T17:49:11.575Z,20.42
2018-02-19T17:51:46.540Z,23.20
2018-02-19T17:54:21.232Z,22.60
2018-02-19T17:56:55.083Z,22.83
2018-02-19T17:59:28.851Z,20.65
2018-02-19T18:02:03.006Z,22.17
2018-02-19T18:04:38.407Z,24.48
2018-02-19T18:07:12.042Z,20.58
2018-02-19T18:09:45.760Z,21.80
2018-02-19T18:12:19.600Z,21.70
2018-02-19T18:14:54.434Z,22.13
2018-02-19T18:17:28.364Z,23.33
2018-02-19T18:20:02.127Z,25.65
2018-02-19T18:22:36.050Z,21.83
2018-02-19T18:25:09.814Z,22.92
2018-02-19T18:27:44.372Z,21.73
2018-02-19T18:30:18.288Z,22.15
2018-02-19T18:32:52.113Z,20.65
2018-02-19T18:35:26.535Z,23.52
2018-02-19T18:38:00.357Z,22.40
2018-02-19T18:40:34.194Z,22.02
2018-02-19T18:43:08.110Z,20.48
2018-02-19T18:45:42.014Z,23.50
2018-02-19T18:48:16.315Z,20.62
2018-02-19T18:50:50.080Z,22.25
2018-02-19T18:53:23.974Z,24.42
2018-02-19T18:55:59.657Z,21.98
2018-02-19T18:58:33.555Z,21.70
2018-02-19T19:01:07.376Z,23.50
2018-02-19T19:03:42.391Z,22.37
2018-02-19T19:06:16.143Z,24.35
2018-02-19T19:09:03.786Z,22.05
2018-02-19T19:11:37.644Z,19.52
2018-02-19T19:14:12.124Z,21.73
2018-02-19T19:16:45.910Z,20.60
2018-02-19T19:19:20.468Z,21.00
2018-02-19T19:21:54.326Z,22.90
2018-02-19T19:24:29.661Z,20.92
2018-02-19T19:27:04.247Z,22.25
2018-02-19T19:29:38.077Z,22.98
2018-02-19T19:32:11.958Z,22.80
2018-02-19T19:34:46.626Z,20.92
2018-02-19T19:37:20.375Z,20.83
2018-02-19T19:39:54.270Z,22.42
2018-02-19T19:42:28.004Z,20.65
2018-02-19T19:45:03.036Z,22.05
2018-02-19T19:47:36.924Z,21.40
2018-02-19T19:50:11.405Z,21.10
2018-02-19T19:52:45.992Z,21.50
2018-02-19T19:55:19.692Z,23.08
2018-02-19T19:57:53.535Z,20.50
2018-02-19T20:00:27.472Z,21.60
2018-02-19T20:03:01.216Z,20.52
2018-02-19T20:05:35.107Z,19.37
2018-02-19T20:08:09.685Z,23.15
2018-02-19T20:10:43.529Z,23.62
2018-02-19T20:13:17.295Z,23.40
2018-02-19T20:15:51.887Z,21.55
2018-02-19T20:18:25.729Z,23.00
2018-02-19T20:21:00.573Z,22.83
2018-02-19T20:23:34.296Z,22.70
2018-02-19T20:26:08.077Z,22.20
2018-02-19T20:28:41.837Z,23.35
2018-02-19T20:31:16.375Z,25.12
2018-02-19T20:33:50.186Z,22.30
2018-02-19T20:36:23.952Z,21.60
2018-02-19T20:38:57.626Z,22.90
2018-02-19T20:41:31.479Z,22.05
2018-02-19T20:44:05.357Z,22.85
2018-02-19T20:46:39.942Z,24.37
2018-02-19T20:49:13.761Z,21.50
2018-02-19T20:51:47.518Z,24.10
2018-02-19T20:54:21.370Z,24.87
2018-02-19T20:56:55.862Z,23.80
2018-02-19T20:59:29.699Z,24.10
2018-02-19T21:02:04.894Z,24.12
2018-02-19T21:04:39.608Z,22.50
2018-02-19T21:07:13.685Z,21.27
2018-02-19T21:09:47.943Z,25.42
2018-02-19T21:12:21.913Z,23.75
2018-02-19T21:14:56.307Z,24.85
2018-02-19T21:17:30.141Z,24.70
2018-02-19T21:20:04.952Z,22.17
2018-02-19T21:22:38.755Z,29.95
2018-02-19T21:25:12.684Z,24.98
2018-02-19T21:27:46.408Z,24.20
2018-02-19T21:30:20.897Z,24.87
2018-02-19T21:32:54.602Z,22.95
2018-02-19T21:35:28.610Z,21.35
2018-02-19T21:38:02.455Z,24.95
2018-02-19T21:40:36.253Z,23.15
2018-02-19T21:43:10.856Z,24.15
2018-02-19T21:45:44.548Z,21.52
2018-02-19T21:48:18.429Z,23.58
2018-02-19T21:50:52.247Z,22.35
2018-02-19T21:53:25.855Z,22.75
2018-02-19T21:55:59.705Z,23.23
2018-02-19T21:58:33.556Z,22.42
